Time;durP1;ratioP1;P1;durP2;ratioP2;P2;SDS_P1;SDS_P2;PMS_P1;PMS_P2;Temp;Humidity;BMP_temperature;BMP_pressure;BME280_temperature;BME280_humidity;BME280_pressure;Samples;Min_cycle;Max_cycle;Signal;HPM_P1;HPM_P2
2022/03/29 00:01:53;;;;;;;3.88;2.00;;;;;;;1.39;73.46;97409.13;5034919;28;20054;-76
2022/03/29 00:04:20;;;;;;;2.65;1.42;;;;;;;1.38;73.23;97409.13;5052798;28;20152;-77
2022/03/29 00:06:47;;;;;;;2.80;1.48;;;;;;;1.41;73.60;97406.56;5052495;28;20450;-76
2022/03/29 00:09:15;;;;;;;4.97;1.70;;;;;;;1.49;73.06;97427.16;5052753;28;20111;-77
2022/03/29 00:11:42;;;;;;;3.20;1.42;;;;;;;1.45;72.59;97384.28;5053181;28;20052;-78
2022/03/29 00:14:09;;;;;;;2.78;1.60;;;;;;;1.29;72.75;97366.25;5052906;28;20064;-77
2022/03/29 00:16:36;;;;;;;3.28;1.50;;;;;;;1.59;72.43;97428.84;5052727;28;20056;-77
2022/03/29 00:19:21;;;;;;;8.32;2.53;;;;;;;1.58;72.30;97416.84;5052910;28;20128;-77
2022/03/29 00:22:14;;;;;;;2.28;1.20;;;;;;;1.70;72.31;97431.41;5052627;28;20755;-77
2022/03/29 00:24:41;;;;;;;3.70;1.40;;;;;;;1.76;71.81;97419.41;5052820;28;20140;-77
2022/03/29 00:27:07;;;;;;;3.10;1.30;;;;;;;1.57;71.48;97395.41;5052880;28;20140;-78
2022/03/29 00:29:35;;;;;;;2.35;1.15;;;;;;;1.78;71.47;97433.13;5052600;28;20049;-77
2022/03/29 00:32:03;;;;;;;2.13;1.10;;;;;;;1.65;71.50;97397.97;5034533;28;20052;-77
2022/03/29 00:34:30;;;;;;;2.38;0.90;;;;;;;1.80;71.33;97431.41;5052164;28;20422;-77
2022/03/29 00:36:57;;;;;;;3.60;1.25;;;;;;;1.61;71.22;97384.28;5052291;28;20048;-77
2022/03/29 00:39:24;;;;;;;2.60;1.25;;;;;;;1.87;71.38;97434.84;5052056;28;20502;-77
2022/03/29 00:41:52;;;;;;;3.40;1.30;;;;;;;1.87;71.35;97421.97;5052613;28;20081;-76
2022/03/29 00:44:24;;;;;;;3.95;1.90;;;;;;;1.92;71.24;97417.69;5052512;28;20049;-77
2022/03/29 00:46:51;;;;;;;4.03;1.40;;;;;;;1.66;71.13;97380.81;5052541;28;20060;-77
2022/03/29 00:49:18;;;;;;;3.33;1.70;;;;;;;1.98;71.00;97435.72;5052240;28;20057;-76
2022/03/29 00:51:45;;;;;;;2.30;1.17;;;;;;;2.01;71.13;97430.53;5052231;28;20049;-77
2022/03/29 00:54:12;;;;;;;2.17;1.23;;;;;;;2.01;71.06;97416.81;5052080;28;20045;-77
2022/03/29 00:56:39;;;;;;;4.40;1.40;;;;;;;2.06;70.79;97433.09;5052121;28;20056;-78
2022/03/29 00:59:06;;;;;;;3.13;1.50;;;;;;;1.85;70.87;97397.97;5052256;28;20132;-77
2022/03/29 01:01:33;;;;;;;3.13;1.33;;;;;;;1.95;70.75;97427.13;5034686;28;20060;-77
2022/03/29 01:04:00;;;;;;;2.35;1.33;;;;;;;2.01;71.17;97432.25;5052145;28;20052;-77
2022/03/29 01:06:27;;;;;;;3.50;1.60;;;;;;;2.01;71.39;97442.56;5034827;28;20518;-76
2022/03/29 01:08:54;;;;;;;2.03;1.20;;;;;;;1.97;71.36;97427.97;5052466;28;20057;-78
2022/03/29 01:11:21;;;;;;;2.88;1.55;;;;;;;1.82;71.24;97410.81;5034603;28;20080;-78
2022/03/29 01:13:49;;;;;;;2.40;1.60;;;;;;;1.80;70.95;97413.41;5052304;28;20053;-77
2022/03/29 01:19:05;;;;;;;2.28;1.42;;;;;;;2.01;71.47;97443.41;5055728;28;20053;-77
2022/03/29 01:21:35;;;;;;;4.95;1.38;;;;;;;2.02;71.24;97442.56;5056219;28;20057;-75
2022/03/29 01:24:02;;;;;;;2.97;1.10;;;;;;;1.93;71.64;97436.56;5055834;28;20118;-77
2022/03/29 01:26:30;;;;;;;3.55;1.20;;;;;;;1.78;71.54;97425.41;5057612;28;20048;-77
2022/03/29 01:28:58;;;;;;;2.53;1.10;;;;;;;1.87;71.79;97442.56;5059406;28;20099;-76
2022/03/29 01:31:25;;;;;;;2.53;1.00;;;;;;;1.79;71.82;97422.00;5068576;28;20089;-76
2022/03/29 01:33:52;;;;;;;3.53;1.10;;;;;;;1.86;71.41;97415.13;5079721;28;20041;-77
2022/03/29 01:36:19;;;;;;;2.85;1.90;;;;;;;1.93;71.51;97429.69;5067419;28;20057;-77
2022/03/29 01:38:47;;;;;;;4.38;1.33;;;;;;;1.83;71.93;97435.72;5055698;28;20067;-76
2022/03/29 01:41:14;;;;;;;3.03;1.30;;;;;;;1.71;71.75;97444.31;5055305;28;20049;-76
2022/03/29 01:43:41;;;;;;;2.30;1.42;;;;;;;1.63;72.20;97446.88;5055708;28;20077;-76
2022/03/29 01:46:12;;;;;;;2.20;1.40;;;;;;;1.55;72.30;97452.84;5055273;28;20530;-76
2022/03/29 01:48:39;;;;;;;2.80;1.63;;;;;;;1.41;72.68;97442.56;5054948;28;20419;-77
2022/03/29 01:51:06;;;;;;;4.10;1.17;;;;;;;1.47;72.33;97450.28;5055048;28;20538;-76
2022/03/29 01:53:33;;;;;;;3.30;1.52;;;;;;;1.58;72.39;97458.88;5055488;28;20056;-76
2022/03/29 01:56:00;;;;;;;2.10;1.20;;;;;;;1.43;72.31;97428.84;5055125;28;20056;-76
2022/03/29 01:58:31;;;;;;;2.40;1.13;;;;;;;1.55;71.86;97450.28;5055369;28;20572;-76
2022/03/29 02:00:58;;;;;;;3.65;1.40;;;;;;;1.55;72.06;97452.84;5037054;28;20048;-77
2022/03/29 02:03:26;;;;;;;3.55;1.40;;;;;;;1.36;71.75;97427.13;5055292;28;20049;-76
2022/03/29 02:05:53;;;;;;;3.47;1.55;;;;;;;1.47;72.18;97447.72;5054463;28;20439;-77
2022/03/29 02:08:20;;;;;;;4.63;1.42;;;;;;;1.41;72.15;97458.00;5054823;28;20076;-77
2022/03/29 02:10:47;;;;;;;5.45;2.10;;;;;;;1.37;72.31;97448.56;5054722;28;20098;-77
2022/03/29 02:13:14;;;;;;;3.65;1.25;;;;;;;1.37;72.27;97452.00;5054632;28;20144;-75
2022/03/29 02:15:41;;;;;;;2.78;1.40;;;;;;;1.32;72.00;97440.00;5055192;28;20061;-78
2022/03/29 02:18:08;;;;;;;3.50;1.33;;;;;;;1.36;71.68;97423.72;5054634;28;20056;-77
2022/03/29 02:20:35;;;;;;;4.20;1.40;;;;;;;1.42;71.56;97427.16;5055236;28;20464;-77
2022/03/29 02:23:04;;;;;;;4.05;1.55;;;;;;;1.39;71.11;97427.13;5054953;28;20159;-78
2022/03/29 02:25:31;;;;;;;2.22;1.20;;;;;;;1.63;71.16;97461.44;5054996;28;20148;-78
2022/03/29 02:27:59;;;;;;;5.35;1.67;;;;;;;1.80;70.80;97484.63;5054015;28;20063;-76
2022/03/29 02:30:25;;;;;;;1.98;1.38;;;;;;;1.83;70.92;97495.78;5054569;28;20052;-76
2022/03/29 02:32:52;;;;;;;1.92;1.55;;;;;;;1.82;70.49;97463.16;5054334;28;20056;-78
2022/03/29 02:35:20;;;;;;;4.15;1.10;;;;;;;1.59;70.80;97422.00;5054405;28;20052;-75
2022/03/29 02:37:47;;;;;;;3.65;1.40;;;;;;;1.88;70.81;97471.75;5054248;28;20072;-76
2022/03/29 02:40:14;;;;;;;3.80;1.20;;;;;;;1.72;70.71;97440.00;5054137;28;20061;-77
2022/03/29 02:42:45;;;;;;;2.58;1.85;;;;;;;1.96;70.48;97495.81;5054248;28;20520;-77
2022/03/29 02:45:16;;;;;;;1.67;1.27;;;;;;;1.96;70.45;97490.66;5054196;28;20468;-77
2022/03/29 02:47:49;;;;;;;2.60;1.27;;;;;;;1.95;70.21;97482.03;5053936;28;20412;-79
2022/03/29 02:50:17;;;;;;;3.28;1.30;;;;;;;1.86;70.48;97464.03;5054441;28;20060;-77
2022/03/29 02:52:48;;;;;;;3.10;1.88;;;;;;;2.01;70.34;97476.91;5054346;28;20060;-77
2022/03/29 02:55:16;;;;;;;1.70;1.05;;;;;;;1.97;70.14;97464.03;5054370;28;20033;-77
2022/03/29 02:57:43;;;;;;;2.95;1.50;;;;;;;2.04;70.40;97476.03;5054120;28;20149;-77
2022/03/29 03:00:15;;;;;;;2.10;1.00;;;;;;;2.05;70.54;97468.31;5053867;28;20118;-77
2022/03/29 03:02:43;;;;;;;2.47;1.10;;;;;;;2.10;70.09;97488.91;5054113;28;20098;-77
2022/03/29 03:05:10;;;;;;;2.78;1.23;;;;;;;2.10;70.02;97482.91;5053724;28;20045;-77
2022/03/29 03:07:38;;;;;;;12.30;3.92;;;;;;;1.98;70.36;97465.72;5053874;28;20099;-77
2022/03/29 03:10:06;;;;;;;9.38;3.60;;;;;;;2.12;69.66;97473.47;5053943;28;20099;-76
2022/03/29 03:12:37;;;;;;;3.58;1.08;;;;;;;1.98;69.97;97460.56;5053805;28;20699;-78
2022/03/29 03:15:06;;;;;;;1.83;1.00;;;;;;;2.08;69.55;97495.78;5053703;28;20059;-77
2022/03/29 03:17:33;;;;;;;3.05;1.30;;;;;;;2.04;69.63;97484.63;5055931;28;20053;-76
2022/03/29 03:20:01;;;;;;;2.90;1.60;;;;;;;2.11;69.34;97484.59;5054604;28;20084;-75
2022/03/29 03:22:28;;;;;;;5.20;2.38;;;;;;;2.02;69.37;97459.72;5035708;28;20110;-77
2022/03/29 03:24:56;;;;;;;2.72;1.30;;;;;;;1.82;69.04;97424.56;5053565;28;20053;-76
2022/03/29 03:27:23;;;;;;;2.85;1.38;;;;;;;2.15;69.01;97487.19;5053437;28;20075;-75
2022/03/29 03:29:49;;;;;;;4.40;1.40;;;;;;;2.11;68.90;97476.88;5053804;28;20147;-77
2022/03/29 03:32:16;;;;;;;2.55;1.00;;;;;;;2.19;68.79;97498.34;5053159;28;20045;-77
2022/03/29 03:34:43;;;;;;;2.10;1.00;;;;;;;2.18;68.83;97484.59;5053243;28;20053;-77
2022/03/29 03:37:10;;;;;;;2.50;1.20;;;;;;;2.22;68.38;97481.16;5053147;28;20574;-77
2022/03/29 03:39:37;;;;;;;3.08;1.30;;;;;;;2.24;68.09;97484.59;5052377;28;20470;-77
2022/03/29 03:42:06;;;;;;;3.13;1.10;;;;;;;2.35;68.03;97520.66;5052589;28;20059;-78
2022/03/29 03:44:33;;;;;;;3.30;1.30;;;;;;;2.37;67.92;97521.50;5053452;28;20049;-77
2022/03/29 03:47:00;;;;;;;1.70;1.15;;;;;;;2.38;67.75;97519.78;5053166;28;20053;-76
2022/03/29 03:49:27;;;;;;;5.20;1.63;;;;;;;2.38;68.22;97522.38;5052948;28;20059;-77
2022/03/29 03:51:54;;;;;;;3.25;1.80;;;;;;;2.37;67.57;97518.09;5053213;28;20095;-77
2022/03/29 03:54:21;;;;;;;3.45;1.48;;;;;;;2.33;68.54;97524.09;5053506;28;20139;-77
2022/03/29 03:56:48;;;;;;;3.78;1.48;;;;;;;2.36;67.97;97516.34;5054066;28;20107;-76
2022/03/29 03:59:15;;;;;;;4.47;2.10;;;;;;;2.44;67.63;97515.47;5054885;28;20526;-77
2022/03/29 04:01:42;;;;;;;5.43;2.55;;;;;;;2.60;67.55;97529.22;5061737;28;20049;-76
2022/03/29 04:04:09;;;;;;;4.13;1.73;;;;;;;2.64;67.38;97533.47;5077690;28;20028;-78
2022/03/29 04:06:36;;;;;;;3.85;1.70;;;;;;;2.45;67.28;97493.13;5068428;28;20053;-77
2022/03/29 04:09:03;;;;;;;3.47;1.75;;;;;;;2.61;66.96;97519.75;5053056;28;20106;-77
2022/03/29 04:11:30;;;;;;;3.78;1.67;;;;;;;2.63;67.02;97534.34;5034933;28;20141;-77
2022/03/29 04:13:58;;;;;;;3.67;1.75;;;;;;;2.52;67.37;97501.72;5052628;28;20057;-78
2022/03/29 04:16:27;;;;;;;6.82;2.13;;;;;;;2.86;67.02;97536.00;5052913;28;20060;-77
2022/03/29 04:18:54;;;;;;;3.95;1.90;;;;;;;2.95;66.22;97522.25;5052819;28;20152;-78
2022/03/29 04:21:22;;;;;;;3.97;1.80;;;;;;;3.02;66.39;97539.41;5052188;28;20106;-78
2022/03/29 04:23:49;;;;;;;1.65;1.50;;;;;;;3.05;66.07;97542.84;5052827;28;20461;-76
2022/03/29 04:26:16;;;;;;;2.25;1.75;;;;;;;3.07;65.82;97525.59;5052339;28;20506;-77
2022/03/29 04:28:43;;;;;;;4.25;1.83;;;;;;;3.06;65.61;97516.16;5052746;28;20061;-78
2022/03/29 04:31:10;;;;;;;8.38;1.95;;;;;;;3.18;65.82;97527.28;5052100;28;20049;-77
2022/03/29 04:33:37;;;;;;;3.72;1.75;;;;;;;3.18;65.17;97545.34;5035106;28;20075;-78
2022/03/29 04:36:04;;;;;;;3.25;2.30;;;;;;;3.23;65.87;97554.78;5052849;28;20156;-80
2022/03/29 04:38:31;;;;;;;2.47;1.50;;;;;;;3.20;65.69;97570.25;5019641;28;20421;-78
2022/03/29 04:40:59;;;;;;;4.63;1.60;;;;;;;3.15;65.37;97555.69;5047454;28;20051;-77
2022/03/29 04:43:26;;;;;;;3.72;1.90;;;;;;;3.21;65.87;97576.31;5041682;28;20135;-78
2022/03/29 04:45:53;;;;;;;2.42;1.80;;;;;;;3.18;65.56;97576.31;5040775;28;20561;-78
2022/03/29 04:48:20;;;;;;;4.97;2.40;;;;;;;3.21;65.78;97586.63;5032348;28;20049;-77
2022/03/29 04:50:47;;;;;;;5.35;2.38;;;;;;;3.23;65.59;97574.59;5032358;28;20392;-78
2022/03/29 04:53:13;;;;;;;2.88;2.10;;;;;;;3.26;65.73;97583.16;5035926;28;20053;-78
2022/03/29 04:55:41;;;;;;;4.05;1.88;;;;;;;3.10;64.90;97549.66;5036319;28;20061;-77
2022/03/29 04:58:07;;;;;;;3.03;2.30;;;;;;;3.21;65.20;97566.84;5036405;28;20131;-80
2022/03/29 05:00:35;;;;;;;5.25;2.20;;;;;;;3.30;65.74;97581.41;5018803;28;20057;-77
2022/03/29 05:03:02;;;;;;;4.93;1.92;;;;;;;3.25;65.68;97588.34;5036807;28;20050;-76
2022/03/29 05:05:29;;;;;;;5.22;2.30;;;;;;;3.21;65.66;97592.63;5044495;28;20113;-78
2022/03/29 05:07:56;;;;;;;2.95;2.03;;;;;;;3.28;65.68;97594.31;5046675;28;20049;-78
2022/03/29 05:10:22;;;;;;;7.18;2.13;;;;;;;3.28;65.50;97580.56;5041004;28;20049;-78
2022/03/29 05:12:51;;;;;;;5.28;2.53;;;;;;;3.43;65.21;97589.97;5046533;28;20091;-79
2022/03/29 05:15:19;;;;;;;3.85;2.72;;;;;;;3.48;65.11;97586.50;5045125;28;20115;-76
2022/03/29 05:17:47;;;;;;;2.97;1.90;;;;;;;3.55;64.94;97584.75;5049310;28;20049;-79
2022/03/29 05:20:15;;;;;;;6.00;2.42;;;;;;;3.69;64.22;97587.25;5051576;28;20065;-80
2022/03/29 05:22:45;;;;;;;6.20;2.50;;;;;;;3.74;64.45;97588.06;5044967;28;20065;-78
2022/03/29 05:25:14;;;;;;;4.88;2.10;;;;;;;3.79;63.56;97595.81;5044717;28;20065;-78
2022/03/29 05:27:42;;;;;;;5.05;2.35;;;;;;;3.84;63.43;97591.47;5043792;28;20530;-78
2022/03/29 05:30:10;;;;;;;5.25;2.40;;;;;;;4.03;63.00;97543.13;5048662;28;20057;-78
2022/03/29 05:32:38;;;;;;;7.70;2.38;;;;;;;5.25;60.24;97586.81;5046187;28;20041;-78
2022/03/29 05:35:07;;;;;;;3.28;2.10;;;;;;;5.52;58.83;97580.41;5044142;28;20110;-79
2022/03/29 05:37:36;;;;;;;5.32;2.85;;;;;;;5.70;58.83;97582.78;5044305;28;20507;-79
2022/03/29 05:40:04;;;;;;;3.55;2.30;;;;;;;5.75;58.66;97596.50;5049236;28;20103;-79
2022/03/29 05:42:31;;;;;;;4.68;2.55;;;;;;;5.83;58.28;97574.81;5055171;28;20056;-78
2022/03/29 05:44:58;;;;;;;3.45;2.40;;;;;;;5.53;57.07;97522.56;5055719;28;20057;-77
2022/03/29 05:50:10;;;;;;;5.07;2.55;;;;;;;5.96;57.53;97597.13;5055553;28;20583;-80
2022/03/29 05:52:38;;;;;;;5.05;2.63;;;;;;;5.35;57.99;97567.66;5055165;28;20061;-79
2022/03/29 05:55:06;;;;;;;5.18;2.60;;;;;;;5.22;59.28;97613.56;5055439;28;20055;-78
2022/03/29 05:57:34;;;;;;;4.45;2.33;;;;;;;5.27;58.82;97600.56;5054798;28;20144;-78
2022/03/29 06:00:01;;;;;;;4.00;2.40;;;;;;;5.40;58.17;97609.91;5054791;28;20606;-78
2022/03/29 06:02:28;;;;;;;4.20;2.40;;;;;;;5.31;58.57;97587.59;5054333;28;20067;-78
2022/03/29 06:04:56;;;;;;;6.60;2.50;;;;;;;5.43;58.38;97603.84;5054658;28;20387;-78
2022/03/29 06:07:22;;;;;;;7.68;2.55;;;;;;;5.72;57.92;97604.34;5037240;28;20057;-79
2022/03/29 06:09:49;;;;;;;5.95;2.65;;;;;;;5.90;56.84;97608.41;5055127;28;20057;-78
2022/03/29 06:12:21;;;;;;;4.18;2.70;;;;;;;6.16;57.00;97620.16;5055372;28;20072;-80
2022/03/29 06:14:49;;;;;;;3.90;2.58;;;;;;;6.25;57.13;97599.28;5056138;28;20053;-76
2022/03/29 06:17:16;;;;;;;5.15;2.88;;;;;;;6.27;55.25;97543.06;5055217;28;20492;-76
2022/03/29 06:19:44;;;;;;;2.90;2.15;;;;;;;6.12;55.57;97559.72;5054701;28;20056;-77
2022/03/29 06:22:11;;;;;;;4.28;2.25;;;;;;;5.93;56.11;97584.16;5054451;28;20079;-78
2022/03/29 06:24:39;;;;;;;3.38;2.30;;;;;;;5.77;57.03;97595.66;5054644;28;20111;-77
2022/03/29 06:27:06;;;;;;;4.30;2.60;;;;;;;5.04;57.71;97521.47;5054877;28;20506;-78
2022/03/29 06:29:36;;;;;;;3.67;2.50;;;;;;;5.24;57.96;97588.50;5056659;28;20060;-78
2022/03/29 06:32:04;;;;;;;5.57;3.03;;;;;;;4.85;59.36;97619.13;5058620;28;20045;-76
2022/03/29 06:34:31;;;;;;;4.35;2.20;;;;;;;4.57;60.02;97651.28;5054830;28;20057;-77
2022/03/29 06:36:59;;;;;;;1.45;1.05;;;;;;;3.93;63.10;97686.97;5078508;28;20057;-76
2022/03/29 06:39:26;;;;;;;2.42;1.50;;;;;;;3.35;65.01;97654.50;5059168;28;20094;-78
2022/03/29 06:41:55;;;;;;;4.43;1.20;;;;;;;3.47;65.14;97687.19;5054868;28;20498;-77
2022/03/29 06:44:23;;;;;;;2.20;1.70;;;;;;;3.72;64.63;97684.50;5053557;28;20231;-77
2022/03/29 06:46:50;;;;;;;3.65;1.60;;;;;;;3.93;64.21;97671.47;5054906;28;20052;-79
2022/03/29 06:49:17;;;;;;;1.55;1.33;;;;;;;3.95;64.21;97684.41;5054472;28;20503;-80
2022/03/29 06:51:47;;;;;;;2.40;1.70;;;;;;;3.78;64.14;97684.47;5054519;28;20623;-78
2022/03/29 06:54:15;;;;;;;2.50;1.90;;;;;;;3.62;65.20;97701.75;5054746;28;20064;-78
2022/03/29 06:56:42;;;;;;;3.55;1.88;;;;;;;3.58;65.46;97690.56;5057805;28;20088;-77
2022/03/29 06:59:10;;;;;;;4.00;1.83;;;;;;;3.54;65.76;97686.28;5053942;28;20049;-77
2022/03/29 07:01:37;;;;;;;2.88;2.08;;;;;;;3.52;65.40;97667.38;5035954;28;20068;-77
2022/03/29 07:04:07;;;;;;;2.30;1.80;;;;;;;3.70;65.58;97718.09;5036672;28;20049;-77
2022/03/29 07:06:34;;;;;;;3.28;2.10;;;;;;;3.61;65.21;97698.31;5035968;28;20056;-77
2022/03/29 07:12:04;;;;;;;4.40;3.00;;;;;;;3.53;66.19;97727.59;5053578;28;20052;-78
2022/03/29 07:14:31;;;;;;;3.75;3.00;;;;;;;3.60;66.18;97739.63;5053652;28;20469;-77
2022/03/29 07:16:59;;;;;;;5.13;2.72;;;;;;;3.49;65.54;97700.94;5053602;28;20057;-76
2022/03/29 07:19:27;;;;;;;4.88;3.50;;;;;;;3.63;65.54;97743.03;5053823;28;20088;-76
2022/03/29 07:21:55;;;;;;;5.65;4.10;;;;;;;3.76;65.53;97733.53;5035394;28;20413;-76
2022/03/29 07:24:22;;;;;;;4.18;3.10;;;;;;;3.75;65.33;97713.75;5035726;28;20079;-77
2022/03/29 07:26:49;;;;;;;6.47;3.65;;;;;;;3.74;65.11;97734.41;5035721;28;20052;-77
2022/03/29 07:29:17;;;;;;;6.13;3.35;;;;;;;3.49;65.11;97698.38;5052620;28;20052;-78
2022/03/29 07:31:45;;;;;;;6.18;4.00;;;;;;;3.95;65.32;97751.56;5053335;28;20080;-78
2022/03/29 07:34:12;;;;;;;5.50;3.40;;;;;;;4.30;64.85;97748.81;5053185;28;20049;-77
2022/03/29 07:36:40;;;;;;;6.47;4.03;;;;;;;4.60;63.91;97740.00;5053058;28;20057;-78
2022/03/29 07:39:07;;;;;;;5.15;3.80;;;;;;;4.89;62.57;97736.38;5053268;28;20122;-78
2022/03/29 07:41:37;;;;;;;5.32;3.55;;;;;;;5.06;62.04;97768.16;5053209;28;20045;-79
2022/03/29 07:44:04;;;;;;;5.00;2.95;;;;;;;5.04;60.76;97733.66;5052158;28;20053;-77
2022/03/29 07:46:31;;;;;;;4.60;2.05;;;;;;;5.32;59.33;97754.97;5052017;28;20051;-77
2022/03/29 07:48:58;;;;;;;2.15;1.90;;;;;;;5.86;57.79;97759.59;5034477;28;20388;-79
2022/03/29 07:51:45;;;;;;;2.38;2.17;;;;;;;6.69;56.51;97775.84;5034468;28;20053;-78
2022/03/29 07:54:13;;;;;;;2.35;1.80;;;;;;;7.16;54.90;97762.16;5033653;28;20103;-80
2022/03/29 07:56:40;;;;;;;2.92;1.85;;;;;;;7.37;53.21;97765.28;5052243;28;20063;-81
2022/03/29 07:59:06;;;;;;;2.90;1.70;;;;;;;7.28;52.93;97791.41;5052860;28;20490;-80
2022/03/29 08:01:34;;;;;;;2.25;1.83;;;;;;;6.53;53.35;97775.22;5052757;28;20057;-79
2022/03/29 08:04:00;;;;;;;2.33;1.80;;;;;;;6.09;53.99;97784.44;5052902;28;20114;-78
2022/03/29 08:06:27;;;;;;;3.08;1.80;;;;;;;5.63;55.08;97756.41;5052147;28;20053;-76
2022/03/29 08:08:54;;;;;;;2.60;1.90;;;;;;;5.81;54.47;97773.47;5051904;28;20057;-80
2022/03/29 08:11:22;;;;;;;2.97;1.70;;;;;;;6.03;54.83;97785.34;5051830;28;20049;-78
2022/03/29 08:13:49;;;;;;;1.73;1.63;;;;;;;6.31;53.94;97766.88;5051646;28;20103;-80
2022/03/29 08:16:17;;;;;;;1.77;1.67;;;;;;;6.41;52.90;97755.50;5017749;28;20160;-76
2022/03/29 08:18:43;;;;;;;3.60;2.20;;;;;;;6.57;51.70;97788.13;5051813;28;20067;-76
2022/03/29 08:23:56;;;;;;;3.10;2.80;;;;;;;6.54;52.62;97805.47;5051995;28;20057;-77
2022/03/29 08:26:23;;;;;;;4.30;2.33;;;;;;;6.83;52.09;97810.25;5051507;28;20056;-78
2022/03/29 08:28:50;;;;;;;3.08;2.50;;;;;;;7.15;51.48;97803.72;5052732;28;20063;-76
2022/03/29 08:31:18;;;;;;;3.05;2.53;;;;;;;7.42;49.32;97807.63;5051474;28;20597;-78
2022/03/29 08:33:45;;;;;;;3.17;2.42;;;;;;;7.03;48.90;97778.81;5051821;28;20083;-77
2022/03/29 08:36:11;;;;;;;2.83;2.60;;;;;;;7.38;49.22;97813.75;5051844;28;20044;-77
2022/03/29 08:38:39;;;;;;;3.35;2.67;;;;;;;7.49;48.09;97809.22;5052379;28;20541;-78
2022/03/29 08:41:06;;;;;;;2.88;2.67;;;;;;;7.57;48.13;97820.34;5034913;28;20057;-78
2022/03/29 08:43:32;;;;;;;3.15;2.72;;;;;;;7.62;48.18;97835.88;5053622;28;20140;-81
2022/03/29 08:46:00;;;;;;;3.38;2.92;;;;;;;7.28;49.04;97809.59;5056421;28;20049;-79
2022/03/29 08:48:29;;;;;;;3.20;2.88;;;;;;;7.42;47.89;97835.31;5053006;28;20088;-78
2022/03/29 08:50:59;;;;;;;2.90;2.50;;;;;;;7.09;47.69;97838.41;5051508;28;20063;-77
2022/03/29 08:53:48;;;;;;;3.77;2.50;;;;;;;6.30;49.35;97845.53;5051136;28;20064;-78
2022/03/29 08:56:17;;;;;;;2.63;2.38;;;;;;;6.22;48.87;97840.44;5029686;28;20403;-80
2022/03/29 08:58:45;;;;;;;5.18;3.05;;;;;;;6.22;48.49;97860.34;5051617;28;20076;-79
2022/03/29 09:01:12;;;;;;;2.92;2.63;;;;;;;6.04;48.63;97862.22;5052657;28;20510;-78
2022/03/29 09:03:39;;;;;;;5.28;2.97;;;;;;;6.18;48.09;97853.47;5053364;28;20053;-77
2022/03/29 09:06:09;;;;;;;5.32;3.22;;;;;;;6.22;47.89;97842.19;5063587;28;20055;-77
2022/03/29 09:08:47;;;;;;;4.82;3.22;;;;;;;6.31;47.50;97842.94;5058415;28;20053;-76
2022/03/29 09:11:16;;;;;;;2.83;2.63;;;;;;;6.55;46.81;97879.81;5074671;28;20087;-78
2022/03/29 09:13:43;;;;;;;4.22;3.00;;;;;;;6.56;47.09;97855.63;5052328;28;20431;-77
2022/03/29 09:16:32;;;;;;;14.35;9.48;;;;;;;7.07;46.19;97871.34;5052578;28;20064;-77
2022/03/29 09:19:00;;;;;;;5.03;2.60;;;;;;;7.32;44.80;97894.38;5052552;28;20144;-80
2022/03/29 09:21:28;;;;;;;4.95;2.85;;;;;;;6.96;45.60;97816.97;5051987;28;20084;-79
2022/03/29 09:24:09;;;;;;;2.58;2.25;;;;;;;7.11;44.17;97890.34;5052940;28;20581;-78
2022/03/29 09:27:09;;;;;;;4.35;2.75;;;;;;;6.60;45.34;97891.00;5052674;28;20060;-76
2022/03/29 09:29:36;;;;;;;3.47;2.85;;;;;;;6.71;45.23;97896.94;5051895;28;20061;-77
2022/03/29 09:32:07;;;;;;;3.50;2.60;;;;;;;7.06;44.31;97907.72;5051721;28;20076;-78
2022/03/29 09:34:35;;;;;;;5.05;2.70;;;;;;;7.21;44.22;97910.09;5051199;28;20053;-78
2022/03/29 09:37:03;;;;;;;6.05;3.28;;;;;;;7.05;43.94;97900.81;5051640;28;20053;-79
2022/03/29 09:39:40;;;;;;;3.58;2.88;;;;;;;7.00;44.01;97905.22;5054720;28;20083;-78
2022/03/29 09:42:11;;;;;;;4.50;3.10;;;;;;;7.17;44.09;97901.50;5037825;28;20084;-78
2022/03/29 09:44:48;;;;;;;6.32;3.30;;;;;;;7.41;44.25;97894.22;5055541;28;20049;-79
2022/03/29 09:47:20;;;;;;;4.28;3.05;;;;;;;7.35;44.22;97913.34;5038177;28;20083;-78
2022/03/29 09:50:08;;;;;;;5.72;3.55;;;;;;;7.37;44.32;97921.13;5055103;28;20056;-76
2022/03/29 09:52:40;;;;;;;4.90;3.75;;;;;;;7.51;44.53;97913.13;5055373;28;20072;-78
2022/03/29 09:55:13;;;;;;;3.42;3.13;;;;;;;7.73;43.99;97919.69;5055500;28;20057;-78
2022/03/29 09:57:45;;;;;;;14.30;7.35;;;;;;;7.93;43.71;97921.94;5055406;28;20119;-79
2022/03/29 10:00:25;;;;;;;4.88;3.72;;;;;;;8.27;42.85;97920.53;5055300;28;20139;-78
2022/03/29 10:02:52;;;;;;;3.92;3.13;;;;;;;8.02;42.42;97918.34;5055929;28;20090;-79
2022/03/29 10:05:20;;;;;;;13.75;8.32;;;;;;;8.18;42.54;97925.00;5055278;28;20056;-79
2022/03/29 10:10:46;;;;;;;10.75;5.13;;;;;;;8.89;40.63;97910.66;5054947;28;20445;-79
2022/03/29 10:13:14;;;;;;;3.40;3.00;;;;;;;8.99;40.46;97895.66;5054961;28;20135;-80
2022/03/29 10:15:45;;;;;;;7.57;2.90;;;;;;;8.95;40.24;97910.53;5054910;28;20135;-78
2022/03/29 10:18:14;;;;;;;10.18;5.15;;;;;;;8.36;41.64;97876.13;5053593;28;20106;-79
2022/03/29 10:20:41;;;;;;;5.13;3.25;;;;;;;8.26;41.07;97914.47;5054033;28;20140;-80
2022/03/29 10:23:11;;;;;;;5.72;3.00;;;;;;;7.73;41.63;97872.06;5054864;28;20084;-78
2022/03/29 10:25:38;;;;;;;6.65;3.80;;;;;;;7.46;42.90;97926.16;5054498;28;20077;-80
2022/03/29 10:28:05;;;;;;;5.03;3.80;;;;;;;7.43;42.13;97920.19;5036904;28;20057;-79
2022/03/29 10:30:39;;;;;;;39.90;18.88;;;;;;;7.53;42.42;97927.81;5054450;28;20111;-81
2022/03/29 10:33:19;;;;;;;4.78;3.05;;;;;;;7.63;41.98;97925.91;5036835;28;20057;-79
2022/03/29 10:36:10;;;;;;;2.90;2.60;;;;;;;7.56;42.31;97927.75;5036612;28;20136;-81
2022/03/29 10:38:46;;;;;;;;;;;;;;;6.80;43.19;97919.31;5054851;28;20076;-79
2022/03/29 10:41:28;;;;;;;4.30;2.50;;;;;;;6.02;44.70;97933.94;5055188;28;19978;-78
2022/03/29 10:44:01;;;;;;;5.03;2.78;;;;;;;5.52;45.14;97920.50;5055537;28;20140;-78
2022/03/29 10:46:36;;;;;;;2.50;2.30;;;;;;;5.57;45.46;97938.63;5054525;28;20152;-78
2022/03/29 10:49:22;;;;;;;5.45;2.85;;;;;;;5.66;45.74;97948.94;5053570;28;20520;-78
2022/03/29 10:51:50;;;;;;;4.22;3.00;;;;;;;6.03;45.60;97948.66;5022239;28;20398;-79
2022/03/29 10:54:31;;;;;;;6.05;4.28;;;;;;;6.29;45.19;97940.63;5037540;28;20063;-80
2022/03/29 10:57:06;;;;;;;6.80;4.53;;;;;;;6.71;44.61;97954.00;5056392;28;20053;-79
2022/03/29 10:59:35;;;;;;;7.35;4.10;;;;;;;6.81;44.24;97946.97;5055111;28;20083;-78
2022/03/29 11:02:19;;;;;;;3.40;2.45;;;;;;;6.60;44.33;97974.00;5036864;28;20538;-78
2022/03/29 11:05:04;;;;;;;3.95;2.75;;;;;;;6.41;44.89;97957.81;5054820;28;20053;-78
2022/03/29 11:07:38;;;;;;;3.63;2.70;;;;;;;6.26;44.66;97919.91;5053781;28;20057;-80
2022/03/29 11:10:19;;;;;;;3.83;2.38;;;;;;;6.35;45.07;97950.94;5053004;28;20467;-77
2022/03/29 11:12:49;;;;;;;2.38;2.17;;;;;;;6.28;44.58;97962.25;5053704;28;20106;-80
2022/03/29 11:15:32;;;;;;;7.55;2.85;;;;;;;6.35;45.44;97969.09;5054506;28;20056;-79
2022/03/29 11:18:01;;;;;;;13.10;6.38;;;;;;;6.10;44.98;97941.66;5054453;28;20516;-78
2022/03/29 11:20:39;;;;;;;2.80;2.42;;;;;;;5.84;45.39;97922.00;5053888;28;20094;-80
2022/03/29 11:23:08;;;;;;;9.63;4.82;;;;;;;6.25;45.66;97983.00;5036224;28;20145;-78
2022/03/29 11:25:41;;;;;;;5.97;2.85;;;;;;;6.33;45.75;97976.03;5053831;28;20060;-77
2022/03/29 11:28:10;;;;;;;3.58;2.30;;;;;;;6.02;44.86;97944.31;5053877;28;20228;-77
2022/03/29 11:30:38;;;;;;;2.50;2.30;;;;;;;6.18;45.40;97975.31;5036082;28;20052;-79
2022/03/29 11:33:06;;;;;;;3.83;2.83;;;;;;;5.81;45.89;97940.19;5053121;28;20055;-79
2022/03/29 11:35:35;;;;;;;4.20;2.53;;;;;;;6.09;46.33;97978.84;5053141;28;20056;-79
2022/03/29 11:38:13;;;;;;;4.07;2.95;;;;;;;6.02;46.61;97956.44;5056982;28;20410;-78
2022/03/29 11:40:41;;;;;;;4.85;2.75;;;;;;;6.02;46.47;97977.16;5072365;28;20036;-78
2022/03/29 11:43:12;;;;;;;5.90;2.85;;;;;;;5.88;47.01;97972.94;5077958;28;20057;-78
2022/03/29 11:45:42;;;;;;;;;;;;;;;5.70;47.59;97986.00;5038616;28;20060;-78
2022/03/29 11:48:12;;;;;;;3.25;2.55;;;;;;;5.89;47.13;97964.28;5054171;28;20378;-76
2022/03/29 11:50:54;;;;;;;3.57;2.40;;;;;;;6.28;47.04;97971.75;5053305;28;20076;-79
2022/03/29 11:53:27;;;;;;;3.00;2.42;;;;;;;6.49;46.33;97975.88;5053884;28;20300;-80
2022/03/29 11:56:06;;;;;;;5.07;3.03;;;;;;;6.36;46.14;97921.50;5053315;28;20446;-80
2022/03/29 11:58:34;;;;;;;4.60;2.70;;;;;;;6.81;46.08;97964.28;5035878;28;20079;-82
2022/03/29 12:01:08;;;;;;;3.65;2.85;;;;;;;6.99;46.08;97971.84;5034968;28;20064;-81
2022/03/29 12:03:36;;;;;;;3.28;2.70;;;;;;;7.00;45.94;98001.25;5035165;28;20055;-77
2022/03/29 12:06:05;;;;;;;2.40;2.20;;;;;;;6.74;46.20;97985.09;5053197;28;20052;-83